sensor_id;sensor_type;location;lat;lon;timestamp;P1;durP1;ratioP1;P2;durP2;ratioP2
14294;SDS011;7231;59.370;18.016;2024-02-16T00:02:14;249.93;;;26.40;;
14294;SDS011;7231;59.370;18.016;2024-02-16T00:04:43;216.13;;;24.70;;
14294;SDS011;7231;59.370;18.016;2024-02-16T00:07:11;158.23;;;23.27;;
14294;SDS011;7231;59.370;18.016;2024-02-16T00:09:38;164.40;;;23.13;;
14294;SDS011;7231;59.370;18.016;2024-02-16T00:12:07;105.80;;;22.33;;
14294;SDS011;7231;59.370;18.016;2024-02-16T00:14:36;137.97;;;22.40;;
14294;SDS011;7231;59.370;18.016;2024-02-16T00:17:04;171.90;;;21.90;;
14294;SDS011;7231;59.370;18.016;2024-02-16T00:19:33;197.43;;;23.20;;
14294;SDS011;7231;59.370;18.016;2024-02-16T00:22:02;147.47;;;24.30;;
14294;SDS011;7231;59.370;18.016;2024-02-16T00:24:33;124.93;;;21.90;;
14294;SDS011;7231;59.370;18.016;2024-02-16T00:27:03;122.83;;;21.97;;
14294;SDS011;7231;59.370;18.016;2024-02-16T00:29:34;91.13;;;20.77;;
14294;SDS011;7231;59.370;18.016;2024-02-16T00:32:02;131.77;;;22.47;;
14294;SDS011;7231;59.370;18.016;2024-02-16T00:34:29;90.40;;;20.30;;
14294;SDS011;7231;59.370;18.016;2024-02-16T00:36:57;113.63;;;21.43;;
14294;SDS011;7231;59.370;18.016;2024-02-16T00:39:26;104.87;;;20.87;;
14294;SDS011;7231;59.370;18.016;2024-02-16T00:41:54;91.63;;;20.07;;
14294;SDS011;7231;59.370;18.016;2024-02-16T00:44:23;104.20;;;21.93;;
14294;SDS011;7231;59.370;18.016;2024-02-16T00:46:52;124.10;;;21.47;;
14294;SDS011;7231;59.370;18.016;2024-02-16T00:49:20;175.07;;;22.83;;
14294;SDS011;7231;59.370;18.016;2024-02-16T00:51:49;209.07;;;23.73;;
14294;SDS011;7231;59.370;18.016;2024-02-16T00:54:17;103.43;;;18.67;;
14294;SDS011;7231;59.370;18.016;2024-02-16T00:56:47;166.13;;;19.80;;
14294;SDS011;7231;59.370;18.016;2024-02-16T00:59:15;146.97;;;19.70;;
14294;SDS011;7231;59.370;18.016;2024-02-16T01:01:44;117.17;;;18.87;;
14294;SDS011;7231;59.370;18.016;2024-02-16T01:04:14;119.47;;;20.13;;
14294;SDS011;7231;59.370;18.016;2024-02-16T01:06:42;92.30;;;18.40;;
14294;SDS011;7231;59.370;18.016;2024-02-16T01:09:10;88.13;;;18.50;;
14294;SDS011;7231;59.370;18.016;2024-02-16T01:11:40;125.83;;;17.47;;
14294;SDS011;7231;59.370;18.016;2024-02-16T01:14:08;81.70;;;18.03;;
14294;SDS011;7231;59.370;18.016;2024-02-16T01:16:36;111.30;;;18.67;;
14294;SDS011;7231;59.370;18.016;2024-02-16T01:19:04;82.57;;;17.67;;
14294;SDS011;7231;59.370;18.016;2024-02-16T01:21:35;70.97;;;16.90;;
14294;SDS011;7231;59.370;18.016;2024-02-16T01:24:03;85.93;;;19.10;;
14294;SDS011;7231;59.370;18.016;2024-02-16T01:26:32;88.63;;;18.30;;
14294;SDS011;7231;59.370;18.016;2024-02-16T01:29:00;84.43;;;18.73;;
14294;SDS011;7231;59.370;18.016;2024-02-16T01:31:30;89.77;;;18.47;;
14294;SDS011;7231;59.370;18.016;2024-02-16T01:33:58;98.87;;;17.57;;
14294;SDS011;7231;59.370;18.016;2024-02-16T01:36:27;125.73;;;19.63;;
14294;SDS011;7231;59.370;18.016;2024-02-16T01:38:57;90.30;;;18.43;;
14294;SDS011;7231;59.370;18.016;2024-02-16T01:41:25;84.30;;;17.97;;
14294;SDS011;7231;59.370;18.016;2024-02-16T01:43:53;75.20;;;16.13;;
14294;SDS011;7231;59.370;18.016;2024-02-16T01:46:22;77.17;;;16.10;;
14294;SDS011;7231;59.370;18.016;2024-02-16T01:48:51;76.57;;;16.60;;
14294;SDS011;7231;59.370;18.016;2024-02-16T01:51:21;75.57;;;17.40;;
14294;SDS011;7231;59.370;18.016;2024-02-16T01:53:51;69.23;;;16.57;;
14294;SDS011;7231;59.370;18.016;2024-02-16T01:56:22;78.97;;;17.77;;
14294;SDS011;7231;59.370;18.016;2024-02-16T01:58:53;63.63;;;15.50;;
14294;SDS011;7231;59.370;18.016;2024-02-16T02:01:21;58.23;;;14.70;;
14294;SDS011;7231;59.370;18.016;2024-02-16T02:03:49;61.30;;;16.80;;
14294;SDS011;7231;59.370;18.016;2024-02-16T02:06:17;57.43;;;14.60;;
14294;SDS011;7231;59.370;18.016;2024-02-16T02:08:46;76.37;;;16.57;;
14294;SDS011;7231;59.370;18.016;2024-02-16T02:11:14;74.40;;;15.73;;
14294;SDS011;7231;59.370;18.016;2024-02-16T02:13:44;50.87;;;14.80;;
14294;SDS011;7231;59.370;18.016;2024-02-16T02:16:12;52.80;;;15.70;;
14294;SDS011;7231;59.370;18.016;2024-02-16T02:18:40;52.77;;;15.60;;
14294;SDS011;7231;59.370;18.016;2024-02-16T02:21:10;52.30;;;15.63;;
14294;SDS011;7231;59.370;18.016;2024-02-16T02:23:41;52.97;;;15.23;;
14294;SDS011;7231;59.370;18.016;2024-02-16T02:26:10;53.60;;;14.07;;
14294;SDS011;7231;59.370;18.016;2024-02-16T02:28:38;44.70;;;14.40;;
14294;SDS011;7231;59.370;18.016;2024-02-16T02:31:06;51.23;;;14.90;;
14294;SDS011;7231;59.370;18.016;2024-02-16T02:33:35;46.45;;;15.45;;
14294;SDS011;7231;59.370;18.016;2024-02-16T02:36:04;33.97;;;14.40;;
14294;SDS011;7231;59.370;18.016;2024-02-16T02:38:32;43.57;;;16.10;;
14294;SDS011;7231;59.370;18.016;2024-02-16T02:41:02;39.40;;;14.57;;
14294;SDS011;7231;59.370;18.016;2024-02-16T02:43:33;41.60;;;15.33;;
14294;SDS011;7231;59.370;18.016;2024-02-16T02:46:02;35.53;;;15.37;;
14294;SDS011;7231;59.370;18.016;2024-02-16T02:48:30;32.03;;;14.73;;
14294;SDS011;7231;59.370;18.016;2024-02-16T02:50:59;35.23;;;14.73;;
14294;SDS011;7231;59.370;18.016;2024-02-16T02:53:27;32.47;;;14.93;;
14294;SDS011;7231;59.370;18.016;2024-02-16T02:55:56;37.13;;;14.90;;
14294;SDS011;7231;59.370;18.016;2024-02-16T02:58:25;28.53;;;13.80;;
14294;SDS011;7231;59.370;18.016;2024-02-16T03:00:56;29.17;;;14.00;;
14294;SDS011;7231;59.370;18.016;2024-02-16T03:03:24;31.20;;;13.60;;
14294;SDS011;7231;59.370;18.016;2024-02-16T03:05:52;30.90;;;14.27;;
14294;SDS011;7231;59.370;18.016;2024-02-16T03:08:20;27.37;;;13.67;;
14294;SDS011;7231;59.370;18.016;2024-02-16T03:10:48;24.60;;;13.13;;
14294;SDS011;7231;59.370;18.016;2024-02-16T03:13:16;29.90;;;13.73;;
14294;SDS011;7231;59.370;18.016;2024-02-16T03:15:46;23.40;;;13.10;;
14294;SDS011;7231;59.370;18.016;2024-02-16T03:18:14;30.67;;;13.53;;
14294;SDS011;7231;59.370;18.016;2024-02-16T03:20:43;26.87;;;12.83;;
14294;SDS011;7231;59.370;18.016;2024-02-16T03:23:14;22.33;;;12.17;;
14294;SDS011;7231;59.370;18.016;2024-02-16T03:25:43;23.87;;;11.03;;
14294;SDS011;7231;59.370;18.016;2024-02-16T03:28:12;21.70;;;11.60;;
14294;SDS011;7231;59.370;18.016;2024-02-16T03:30:40;20.77;;;11.90;;
14294;SDS011;7231;59.370;18.016;2024-02-16T03:33:10;24.80;;;13.23;;
14294;SDS011;7231;59.370;18.016;2024-02-16T03:35:39;21.30;;;11.60;;
14294;SDS011;7231;59.370;18.016;2024-02-16T03:38:07;22.70;;;12.40;;
14294;SDS011;7231;59.370;18.016;2024-02-16T03:40:35;23.43;;;12.03;;
14294;SDS011;7231;59.370;18.016;2024-02-16T03:43:03;21.37;;;11.73;;
14294;SDS011;7231;59.370;18.016;2024-02-16T03:45:32;21.27;;;11.70;;
14294;SDS011;7231;59.370;18.016;2024-02-16T03:48:00;18.57;;;11.33;;
14294;SDS011;7231;59.370;18.016;2024-02-16T03:50:29;23.47;;;12.73;;
14294;SDS011;7231;59.370;18.016;2024-02-16T03:52:58;22.30;;;11.63;;
14294;SDS011;7231;59.370;18.016;2024-02-16T03:55:26;18.33;;;9.33;;
14294;SDS011;7231;59.370;18.016;2024-02-16T03:57:54;20.00;;;11.37;;
14294;SDS011;7231;59.370;18.016;2024-02-16T04:00:22;18.80;;;10.43;;
14294;SDS011;7231;59.370;18.016;2024-02-16T04:02:50;22.63;;;11.23;;
14294;SDS011;7231;59.370;18.016;2024-02-16T04:05:19;18.23;;;11.07;;
14294;SDS011;7231;59.370;18.016;2024-02-16T04:07:48;20.33;;;10.83;;
14294;SDS011;7231;59.370;18.016;2024-02-16T04:10:16;17.03;;;9.63;;
14294;SDS011;7231;59.370;18.016;2024-02-16T04:12:45;15.53;;;9.07;;
14294;SDS011;7231;59.370;18.016;2024-02-16T04:15:13;15.97;;;9.47;;
14294;SDS011;7231;59.370;18.016;2024-02-16T04:17:41;19.83;;;11.40;;
14294;SDS011;7231;59.370;18.016;2024-02-16T04:20:09;20.43;;;11.20;;
14294;SDS011;7231;59.370;18.016;2024-02-16T04:22:38;16.23;;;8.93;;
14294;SDS011;7231;59.370;18.016;2024-02-16T04:25:08;15.43;;;10.00;;
14294;SDS011;7231;59.370;18.016;2024-02-16T04:27:36;19.97;;;10.47;;
14294;SDS011;7231;59.370;18.016;2024-02-16T04:30:06;13.80;;;9.57;;
14294;SDS011;7231;59.370;18.016;2024-02-16T04:32:34;21.37;;;9.67;;
14294;SDS011;7231;59.370;18.016;2024-02-16T04:35:03;19.30;;;9.90;;
14294;SDS011;7231;59.370;18.016;2024-02-16T04:37:32;17.67;;;10.37;;
14294;SDS011;7231;59.370;18.016;2024-02-16T04:40:00;16.63;;;9.77;;
14294;SDS011;7231;59.370;18.016;2024-02-16T04:42:29;14.63;;;9.23;;
14294;SDS011;7231;59.370;18.016;2024-02-16T04:44:58;13.73;;;9.23;;
14294;SDS011;7231;59.370;18.016;2024-02-16T04:47:31;15.57;;;9.33;;
14294;SDS011;7231;59.370;18.016;2024-02-16T04:49:59;14.60;;;9.20;;
14294;SDS011;7231;59.370;18.016;2024-02-16T04:52:28;13.97;;;8.07;;
14294;SDS011;7231;59.370;18.016;2024-02-16T04:54:56;15.23;;;8.47;;
14294;SDS011;7231;59.370;18.016;2024-02-16T04:57:25;11.80;;;7.90;;
14294;SDS011;7231;59.370;18.016;2024-02-16T04:59:54;11.00;;;7.63;;
14294;SDS011;7231;59.370;18.016;2024-02-16T05:02:22;11.00;;;7.83;;
14294;SDS011;7231;59.370;18.016;2024-02-16T05:04:50;10.50;;;7.53;;
14294;SDS011;7231;59.370;18.016;2024-02-16T05:07:19;12.73;;;7.20;;
14294;SDS011;7231;59.370;18.016;2024-02-16T05:09:47;10.63;;;7.13;;
14294;SDS011;7231;59.370;18.016;2024-02-16T05:12:16;8.53;;;6.97;;
14294;SDS011;7231;59.370;18.016;2024-02-16T05:14:47;12.13;;;6.83;;
14294;SDS011;7231;59.370;18.016;2024-02-16T05:17:17;9.33;;;6.60;;
14294;SDS011;7231;59.370;18.016;2024-02-16T05:19:46;9.27;;;6.30;;
14294;SDS011;7231;59.370;18.016;2024-02-16T05:22:15;9.27;;;6.60;;
14294;SDS011;7231;59.370;18.016;2024-02-16T05:24:44;9.00;;;6.37;;
14294;SDS011;7231;59.370;18.016;2024-02-16T05:27:12;7.33;;;5.47;;
14294;SDS011;7231;59.370;18.016;2024-02-16T05:29:41;8.73;;;5.23;;
14294;SDS011;7231;59.370;18.016;2024-02-16T05:32:09;6.43;;;5.55;;
14294;SDS011;7231;59.370;18.016;2024-02-16T05:34:38;9.43;;;6.03;;
14294;SDS011;7231;59.370;18.016;2024-02-16T05:37:07;7.93;;;5.50;;
14294;SDS011;7231;59.370;18.016;2024-02-16T05:39:36;7.77;;;5.60;;
14294;SDS011;7231;59.370;18.016;2024-02-16T05:42:20;5.90;;;5.10;;
14294;SDS011;7231;59.370;18.016;2024-02-16T05:44:49;5.80;;;4.60;;
14294;SDS011;7231;59.370;18.016;2024-02-16T05:47:17;6.23;;;5.03;;
14294;SDS011;7231;59.370;18.016;2024-02-16T05:49:48;7.43;;;5.10;;
14294;SDS011;7231;59.370;18.016;2024-02-16T05:52:17;8.60;;;5.40;;
14294;SDS011;7231;59.370;18.016;2024-02-16T05:54:45;6.00;;;5.10;;
14294;SDS011;7231;59.370;18.016;2024-02-16T05:57:14;6.93;;;4.97;;
14294;SDS011;7231;59.370;18.016;2024-02-16T05:59:43;6.30;;;4.47;;
14294;SDS011;7231;59.370;18.016;2024-02-16T06:02:12;8.00;;;5.33;;
14294;SDS011;7231;59.370;18.016;2024-02-16T06:04:40;6.57;;;4.43;;
14294;SDS011;7231;59.370;18.016;2024-02-16T06:07:10;6.43;;;4.83;;
14294;SDS011;7231;59.370;18.016;2024-02-16T06:09:39;5.67;;;4.77;;
14294;SDS011;7231;59.370;18.016;2024-02-16T06:12:07;7.33;;;4.77;;
14294;SDS011;7231;59.370;18.016;2024-02-16T06:14:36;8.03;;;4.80;;
14294;SDS011;7231;59.370;18.016;2024-02-16T06:17:04;7.10;;;4.97;;
14294;SDS011;7231;59.370;18.016;2024-02-16T06:19:34;6.67;;;4.70;;
14294;SDS011;7231;59.370;18.016;2024-02-16T06:22:03;5.57;;;4.47;;
14294;SDS011;7231;59.370;18.016;2024-02-16T06:24:32;5.53;;;4.43;;
14294;SDS011;7231;59.370;18.016;2024-02-16T06:27:00;7.33;;;4.70;;
14294;SDS011;7231;59.370;18.016;2024-02-16T06:29:29;6.10;;;4.10;;
14294;SDS011;7231;59.370;18.016;2024-02-16T06:31:57;6.50;;;4.57;;
14294;SDS011;7231;59.370;18.016;2024-02-16T06:34:26;5.77;;;3.90;;
14294;SDS011;7231;59.370;18.016;2024-02-16T06:36:54;6.10;;;4.20;;
14294;SDS011;7231;59.370;18.016;2024-02-16T06:39:22;6.23;;;4.07;;
14294;SDS011;7231;59.370;18.016;2024-02-16T06:41:52;7.00;;;4.37;;
14294;SDS011;7231;59.370;18.016;2024-02-16T06:44:21;4.90;;;3.47;;
14294;SDS011;7231;59.370;18.016;2024-02-16T06:46:50;7.13;;;4.27;;
14294;SDS011;7231;59.370;18.016;2024-02-16T06:49:18;4.90;;;3.53;;
14294;SDS011;7231;59.370;18.016;2024-02-16T06:51:47;8.00;;;3.90;;
14294;SDS011;7231;59.370;18.016;2024-02-16T06:54:15;6.77;;;3.40;;
14294;SDS011;7231;59.370;18.016;2024-02-16T06:56:43;7.13;;;3.40;;
14294;SDS011;7231;59.370;18.016;2024-02-16T06:59:13;6.07;;;3.67;;
14294;SDS011;7231;59.370;18.016;2024-02-16T07:01:41;4.10;;;2.93;;
14294;SDS011;7231;59.370;18.016;2024-02-16T07:04:09;5.47;;;3.37;;
14294;SDS011;7231;59.370;18.016;2024-02-16T07:06:38;4.07;;;2.67;;
14294;SDS011;7231;59.370;18.016;2024-02-16T07:09:07;3.70;;;2.95;;
14294;SDS011;7231;59.370;18.016;2024-02-16T07:11:35;5.80;;;2.80;;
14294;SDS011;7231;59.370;18.016;2024-02-16T07:14:04;2.97;;;2.60;;
14294;SDS011;7231;59.370;18.016;2024-02-16T07:16:34;5.65;;;2.95;;
14294;SDS011;7231;59.370;18.016;2024-02-16T07:19:03;4.03;;;2.55;;
14294;SDS011;7231;59.370;18.016;2024-02-16T07:21:32;4.28;;;2.33;;
14294;SDS011;7231;59.370;18.016;2024-02-16T07:24:00;2.17;;;1.77;;
14294;SDS011;7231;59.370;18.016;2024-02-16T07:26:28;2.78;;;2.28;;
14294;SDS011;7231;59.370;18.016;2024-02-16T07:28:56;3.97;;;2.53;;
14294;SDS011;7231;59.370;18.016;2024-02-16T07:31:25;3.85;;;2.30;;
14294;SDS011;7231;59.370;18.016;2024-02-16T07:33:54;2.83;;;2.40;;
14294;SDS011;7231;59.370;18.016;2024-02-16T07:36:23;3.00;;;2.17;;
14294;SDS011;7231;59.370;18.016;2024-02-16T07:38:51;2.80;;;2.50;;
14294;SDS011;7231;59.370;18.016;2024-02-16T07:41:19;3.28;;;2.47;;
14294;SDS011;7231;59.370;18.016;2024-02-16T07:43:48;3.72;;;2.50;;
14294;SDS011;7231;59.370;18.016;2024-02-16T07:46:16;3.40;;;2.90;;
14294;SDS011;7231;59.370;18.016;2024-02-16T07:48:44;9.35;;;2.45;;
14294;SDS011;7231;59.370;18.016;2024-02-16T07:51:14;2.90;;;2.47;;
14294;SDS011;7231;59.370;18.016;2024-02-16T07:53:42;3.22;;;2.50;;
14294;SDS011;7231;59.370;18.016;2024-02-16T07:56:13;4.47;;;2.80;;
14294;SDS011;7231;59.370;18.016;2024-02-16T07:58:41;2.95;;;2.38;;
14294;SDS011;7231;59.370;18.016;2024-02-16T08:01:11;3.08;;;2.13;;
14294;SDS011;7231;59.370;18.016;2024-02-16T08:03:42;3.03;;;2.20;;
14294;SDS011;7231;59.370;18.016;2024-02-16T08:06:10;4.35;;;2.78;;
14294;SDS011;7231;59.370;18.016;2024-02-16T08:08:40;3.15;;;2.50;;
14294;SDS011;7231;59.370;18.016;2024-02-16T08:11:08;6.90;;;2.80;;
14294;SDS011;7231;59.370;18.016;2024-02-16T08:13:36;3.33;;;2.50;;
14294;SDS011;7231;59.370;18.016;2024-02-16T08:16:04;3.75;;;2.63;;
14294;SDS011;7231;59.370;18.016;2024-02-16T08:18:34;4.60;;;2.85;;
14294;SDS011;7231;59.370;18.016;2024-02-16T08:21:02;3.30;;;2.22;;
14294;SDS011;7231;59.370;18.016;2024-02-16T08:23:30;2.70;;;2.30;;
14294;SDS011;7231;59.370;18.016;2024-02-16T08:26:00;5.72;;;3.17;;
14294;SDS011;7231;59.370;18.016;2024-02-16T08:28:30;4.38;;;2.80;;
14294;SDS011;7231;59.370;18.016;2024-02-16T08:30:58;4.93;;;2.72;;
14294;SDS011;7231;59.370;18.016;2024-02-16T08:33:27;3.70;;;3.20;;
14294;SDS011;7231;59.370;18.016;2024-02-16T08:35:55;5.18;;;2.05;;
14294;SDS011;7231;59.370;18.016;2024-02-16T08:38:23;4.13;;;2.28;;
14294;SDS011;7231;59.370;18.016;2024-02-16T08:40:51;5.53;;;2.90;;
14294;SDS011;7231;59.370;18.016;2024-02-16T08:43:21;8.00;;;2.47;;
14294;SDS011;7231;59.370;18.016;2024-02-16T08:45:49;3.05;;;2.10;;
14294;SDS011;7231;59.370;18.016;2024-02-16T08:48:17;3.80;;;2.25;;
14294;SDS011;7231;59.370;18.016;2024-02-16T08:50:46;4.57;;;2.60;;
14294;SDS011;7231;59.370;18.016;2024-02-16T08:53:15;3.58;;;2.08;;
14294;SDS011;7231;59.370;18.016;2024-02-16T08:55:43;6.63;;;2.20;;
14294;SDS011;7231;59.370;18.016;2024-02-16T08:58:12;2.33;;;1.80;;
14294;SDS011;7231;59.370;18.016;2024-02-16T09:00:41;4.03;;;2.20;;
14294;SDS011;7231;59.370;18.016;2024-02-16T09:03:10;3.13;;;2.10;;
14294;SDS011;7231;59.370;18.016;2024-02-16T09:05:39;2.45;;;1.45;;
14294;SDS011;7231;59.370;18.016;2024-02-16T09:08:07;3.15;;;1.55;;
14294;SDS011;7231;59.370;18.016;2024-02-16T09:10:36;2.00;;;1.50;;
14294;SDS011;7231;59.370;18.016;2024-02-16T09:13:04;3.92;;;1.80;;
14294;SDS011;7231;59.370;18.016;2024-02-16T09:15:32;4.20;;;1.98;;
14294;SDS011;7231;59.370;18.016;2024-02-16T09:18:02;4.03;;;2.13;;
14294;SDS011;7231;59.370;18.016;2024-02-16T09:20:30;3.95;;;1.65;;
14294;SDS011;7231;59.370;18.016;2024-02-16T09:22:58;2.45;;;1.88;;
14294;SDS011;7231;59.370;18.016;2024-02-16T09:25:26;4.05;;;1.77;;
14294;SDS011;7231;59.370;18.016;2024-02-16T09:27:55;3.63;;;1.90;;
14294;SDS011;7231;59.370;18.016;2024-02-16T09:30:23;2.67;;;1.70;;
14294;SDS011;7231;59.370;18.016;2024-02-16T09:32:53;4.32;;;2.30;;
14294;SDS011;7231;59.370;18.016;2024-02-16T09:35:23;2.58;;;1.85;;
14294;SDS011;7231;59.370;18.016;2024-02-16T09:37:51;1.98;;;1.65;;
14294;SDS011;7231;59.370;18.016;2024-02-16T09:40:19;1.50;;;1.40;;
14294;SDS011;7231;59.370;18.016;2024-02-16T09:42:47;2.53;;;1.45;;
14294;SDS011;7231;59.370;18.016;2024-02-16T09:45:17;3.97;;;1.60;;
14294;SDS011;7231;59.370;18.016;2024-02-16T09:47:46;3.50;;;1.95;;
14294;SDS011;7231;59.370;18.016;2024-02-16T09:50:27;3.05;;;1.75;;
14294;SDS011;7231;59.370;18.016;2024-02-16T09:52:56;4.45;;;1.83;;
14294;SDS011;7231;59.370;18.016;2024-02-16T09:55:24;1.88;;;1.63;;
14294;SDS011;7231;59.370;18.016;2024-02-16T09:57:58;3.17;;;1.75;;
14294;SDS011;7231;59.370;18.016;2024-02-16T10:00:26;2.83;;;1.73;;
14294;SDS011;7231;59.370;18.016;2024-02-16T10:02:55;2.53;;;1.65;;
14294;SDS011;7231;59.370;18.016;2024-02-16T10:05:23;3.58;;;1.90;;
14294;SDS011;7231;59.370;18.016;2024-02-16T10:07:53;2.97;;;1.40;;
14294;SDS011;7231;59.370;18.016;2024-02-16T10:10:22;2.88;;;1.52;;
14294;SDS011;7231;59.370;18.016;2024-02-16T10:12:50;2.33;;;1.60;;
14294;SDS011;7231;59.370;18.016;2024-02-16T10:15:28;2.28;;;1.60;;
14294;SDS011;7231;59.370;18.016;2024-02-16T10:17:59;3.85;;;1.77;;
14294;SDS011;7231;59.370;18.016;2024-02-16T10:20:28;2.72;;;1.42;;
14294;SDS011;7231;59.370;18.016;2024-02-16T10:23:05;3.58;;;1.90;;
14294;SDS011;7231;59.370;18.016;2024-02-16T10:25:34;2.28;;;1.63;;
14294;SDS011;7231;59.370;18.016;2024-02-16T10:28:04;3.83;;;1.70;;
14294;SDS011;7231;59.370;18.016;2024-02-16T10:30:34;3.10;;;1.55;;
14294;SDS011;7231;59.370;18.016;2024-02-16T10:33:05;4.38;;;1.70;;
14294;SDS011;7231;59.370;18.016;2024-02-16T10:35:34;2.10;;;1.40;;
14294;SDS011;7231;59.370;18.016;2024-02-16T10:38:03;4.88;;;1.60;;
14294;SDS011;7231;59.370;18.016;2024-02-16T10:40:37;3.20;;;1.55;;
14294;SDS011;7231;59.370;18.016;2024-02-16T10:43:07;2.85;;;1.70;;
14294;SDS011;7231;59.370;18.016;2024-02-16T10:45:36;4.15;;;1.30;;
14294;SDS011;7231;59.370;18.016;2024-02-16T10:48:05;2.08;;;1.33;;
14294;SDS011;7231;59.370;18.016;2024-02-16T10:50:35;2.67;;;1.55;;
14294;SDS011;7231;59.370;18.016;2024-02-16T10:53:08;4.95;;;1.60;;
14294;SDS011;7231;59.370;18.016;2024-02-16T10:55:40;2.95;;;1.45;;
14294;SDS011;7231;59.370;18.016;2024-02-16T10:58:10;1.90;;;1.17;;
14294;SDS011;7231;59.370;18.016;2024-02-16T11:00:47;2.60;;;1.40;;
14294;SDS011;7231;59.370;18.016;2024-02-16T11:03:17;2.28;;;1.30;;
14294;SDS011;7231;59.370;18.016;2024-02-16T11:05:49;2.67;;;1.35;;
14294;SDS011;7231;59.370;18.016;2024-02-16T11:08:19;2.92;;;1.50;;
14294;SDS011;7231;59.370;18.016;2024-02-16T11:10:55;1.50;;;1.40;;
14294;SDS011;7231;59.370;18.016;2024-02-16T11:13:24;2.83;;;1.48;;
14294;SDS011;7231;59.370;18.016;2024-02-16T11:15:56;1.80;;;1.70;;
14294;SDS011;7231;59.370;18.016;2024-02-16T11:18:26;9.13;;;1.83;;
14294;SDS011;7231;59.370;18.016;2024-02-16T11:20:55;2.08;;;1.70;;
14294;SDS011;7231;59.370;18.016;2024-02-16T11:23:29;2.03;;;1.58;;
14294;SDS011;7231;59.370;18.016;2024-02-16T11:26:02;2.38;;;1.58;;
14294;SDS011;7231;59.370;18.016;2024-02-16T11:28:33;2.47;;;1.90;;
14294;SDS011;7231;59.370;18.016;2024-02-16T11:31:02;7.93;;;1.92;;
14294;SDS011;7231;59.370;18.016;2024-02-16T11:33:31;5.07;;;1.92;;
14294;SDS011;7231;59.370;18.016;2024-02-16T11:36:00;2.08;;;1.75;;
14294;SDS011;7231;59.370;18.016;2024-02-16T11:38:31;2.08;;;1.85;;
14294;SDS011;7231;59.370;18.016;2024-02-16T11:41:01;2.20;;;1.85;;
14294;SDS011;7231;59.370;18.016;2024-02-16T11:43:31;2.95;;;2.13;;
14294;SDS011;7231;59.370;18.016;2024-02-16T11:46:10;2.70;;;2.42;;
14294;SDS011;7231;59.370;18.016;2024-02-16T11:48:39;2.58;;;2.25;;
14294;SDS011;7231;59.370;18.016;2024-02-16T11:51:08;2.40;;;2.00;;
14294;SDS011;7231;59.370;18.016;2024-02-16T11:53:38;3.90;;;2.00;;
14294;SDS011;7231;59.370;18.016;2024-02-16T11:56:06;3.95;;;2.58;;
14294;SDS011;7231;59.370;18.016;2024-02-16T11:58:34;4.07;;;2.55;;
14294;SDS011;7231;59.370;18.016;2024-02-16T12:01:03;3.17;;;2.50;;
14294;SDS011;7231;59.370;18.016;2024-02-16T12:03:40;3.53;;;2.53;;
14294;SDS011;7231;59.370;18.016;2024-02-16T12:06:08;4.20;;;2.90;;
14294;SDS011;7231;59.370;18.016;2024-02-16T12:08:49;2.50;;;2.17;;
14294;SDS011;7231;59.370;18.016;2024-02-16T12:11:19;2.92;;;2.55;;
14294;SDS011;7231;59.370;18.016;2024-02-16T12:13:47;3.17;;;2.30;;
14294;SDS011;7231;59.370;18.016;2024-02-16T12:16:18;2.90;;;2.30;;
14294;SDS011;7231;59.370;18.016;2024-02-16T12:18:46;3.15;;;2.33;;
14294;SDS011;7231;59.370;18.016;2024-02-16T12:21:17;4.22;;;3.20;;
14294;SDS011;7231;59.370;18.016;2024-02-16T12:23:46;3.05;;;2.40;;
14294;SDS011;7231;59.370;18.016;2024-02-16T12:26:16;2.75;;;1.90;;
14294;SDS011;7231;59.370;18.016;2024-02-16T12:28:44;3.97;;;1.92;;
14294;SDS011;7231;59.370;18.016;2024-02-16T12:31:17;1.75;;;1.55;;
14294;SDS011;7231;59.370;18.016;2024-02-16T12:33:46;1.95;;;1.75;;
14294;SDS011;7231;59.370;18.016;2024-02-16T12:36:14;2.22;;;2.00;;
14294;SDS011;7231;59.370;18.016;2024-02-16T12:38:43;2.10;;;1.73;;
14294;SDS011;7231;59.370;18.016;2024-02-16T12:41:12;2.50;;;1.75;;
14294;SDS011;7231;59.370;18.016;2024-02-16T12:43:41;3.85;;;2.20;;
14294;SDS011;7231;59.370;18.016;2024-02-16T12:46:09;3.00;;;1.70;;
14294;SDS011;7231;59.370;18.016;2024-02-16T12:48:37;1.85;;;1.52;;
14294;SDS011;7231;59.370;18.016;2024-02-16T12:51:06;2.78;;;2.00;;
14294;SDS011;7231;59.370;18.016;2024-02-16T12:53:34;1.65;;;1.40;;
14294;SDS011;7231;59.370;18.016;2024-02-16T12:56:07;2.03;;;1.70;;
14294;SDS011;7231;59.370;18.016;2024-02-16T12:58:36;2.75;;;1.70;;
14294;SDS011;7231;59.370;18.016;2024-02-16T13:01:06;1.98;;;1.67;;
14294;SDS011;7231;59.370;18.016;2024-02-16T13:03:48;2.20;;;1.65;;
14294;SDS011;7231;59.370;18.016;2024-02-16T13:06:16;2.75;;;1.80;;
14294;SDS011;7231;59.370;18.016;2024-02-16T13:08:46;1.80;;;1.67;;
14294;SDS011;7231;59.370;18.016;2024-02-16T13:11:14;1.75;;;1.63;;
14294;SDS011;7231;59.370;18.016;2024-02-16T13:13:42;1.83;;;1.50;;
14294;SDS011;7231;59.370;18.016;2024-02-16T13:16:14;1.67;;;1.58;;
14294;SDS011;7231;59.370;18.016;2024-02-16T13:18:43;1.77;;;1.55;;
14294;SDS011;7231;59.370;18.016;2024-02-16T13:21:11;3.10;;;1.80;;
14294;SDS011;7231;59.370;18.016;2024-02-16T13:23:39;1.83;;;1.50;;
14294;SDS011;7231;59.370;18.016;2024-02-16T13:26:07;2.10;;;1.90;;
14294;SDS011;7231;59.370;18.016;2024-02-16T13:28:35;3.13;;;1.52;;
14294;SDS011;7231;59.370;18.016;2024-02-16T13:31:03;2.30;;;1.80;;
14294;SDS011;7231;59.370;18.016;2024-02-16T13:33:33;2.20;;;1.67;;
14294;SDS011;7231;59.370;18.016;2024-02-16T13:36:02;2.28;;;1.45;;
14294;SDS011;7231;59.370;18.016;2024-02-16T13:38:32;2.72;;;1.60;;
14294;SDS011;7231;59.370;18.016;2024-02-16T13:41:00;1.73;;;1.60;;
14294;SDS011;7231;59.370;18.016;2024-02-16T13:43:28;4.18;;;1.67;;
14294;SDS011;7231;59.370;18.016;2024-02-16T13:45:56;1.70;;;1.40;;
14294;SDS011;7231;59.370;18.016;2024-02-16T13:48:25;2.25;;;1.60;;
14294;SDS011;7231;59.370;18.016;2024-02-16T13:50:55;1.88;;;1.38;;
14294;SDS011;7231;59.370;18.016;2024-02-16T13:53:24;3.13;;;1.80;;
14294;SDS011;7231;59.370;18.016;2024-02-16T13:55:52;2.63;;;1.50;;
14294;SDS011;7231;59.370;18.016;2024-02-16T13:58:22;2.15;;;1.40;;
14294;SDS011;7231;59.370;18.016;2024-02-16T14:00:50;1.90;;;1.70;;
14294;SDS011;7231;59.370;18.016;2024-02-16T14:03:18;2.22;;;1.83;;
14294;SDS011;7231;59.370;18.016;2024-02-16T14:05:47;1.88;;;1.50;;
14294;SDS011;7231;59.370;18.016;2024-02-16T14:08:17;1.60;;;1.45;;
14294;SDS011;7231;59.370;18.016;2024-02-16T14:10:45;1.95;;;1.63;;
14294;SDS011;7231;59.370;18.016;2024-02-16T14:13:13;1.70;;;1.58;;
14294;SDS011;7231;59.370;18.016;2024-02-16T14:15:42;3.13;;;1.60;;
14294;SDS011;7231;59.370;18.016;2024-02-16T14:18:10;5.10;;;1.70;;
14294;SDS011;7231;59.370;18.016;2024-02-16T14:20:52;2.22;;;1.70;;
14294;SDS011;7231;59.370;18.016;2024-02-16T14:23:22;2.03;;;1.80;;
14294;SDS011;7231;59.370;18.016;2024-02-16T14:25:50;2.95;;;1.90;;
14294;SDS011;7231;59.370;18.016;2024-02-16T14:28:18;3.20;;;1.70;;
14294;SDS011;7231;59.370;18.016;2024-02-16T14:30:47;4.13;;;1.88;;
14294;SDS011;7231;59.370;18.016;2024-02-16T14:33:16;3.60;;;1.70;;
14294;SDS011;7231;59.370;18.016;2024-02-16T14:35:54;2.88;;;1.90;;
14294;SDS011;7231;59.370;18.016;2024-02-16T14:38:23;3.30;;;1.73;;
14294;SDS011;7231;59.370;18.016;2024-02-16T14:40:52;3.65;;;1.60;;
14294;SDS011;7231;59.370;18.016;2024-02-16T14:43:20;3.45;;;2.03;;
14294;SDS011;7231;59.370;18.016;2024-02-16T14:45:48;2.63;;;1.95;;
14294;SDS011;7231;59.370;18.016;2024-02-16T14:48:16;2.08;;;1.83;;
14294;SDS011;7231;59.370;18.016;2024-02-16T14:50:44;2.60;;;1.90;;